createdAt,value
2023-02-27T00:02:12.707Z,100457.31
2023-02-27T00:05:16.976Z,100456.47
2023-02-27T00:08:19.820Z,100464.41
2023-02-27T00:11:22.660Z,100468.22
2023-02-27T00:14:25.788Z,100466.25
2023-02-27T00:17:29.798Z,100470.91
2023-02-27T00:20:37.915Z,100473.06
2023-02-27T00:23:40.974Z,100476.44
2023-02-27T00:26:43.809Z,100484.91
2023-02-27T00:29:46.649Z,100481.38
2023-02-27T00:32:49.417Z,100480.59
2023-02-27T00:36:01.462Z,100492.50
2023-02-27T00:39:04.703Z,100492.69
2023-02-27T00:42:07.904Z,100491.66
2023-02-27T00:45:11.069Z,100498.19
2023-02-27T00:48:14.204Z,100502.97
2023-02-27T00:51:20.234Z,100506.94
2023-02-27T00:54:23.267Z,100511.88
2023-02-27T00:57:26.619Z,100510.19
2023-02-27T01:00:29.948Z,100507.03
2023-02-27T01:03:33.229Z,100513.50
2023-02-27T01:06:36.344Z,100522.03
2023-02-27T01:09:39.400Z,100521.00
2023-02-27T01:12:43.477Z,100520.56
2023-02-27T01:15:46.440Z,100524.91
2023-02-27T01:18:49.456Z,100535.53
2023-02-27T01:21:53.117Z,100530.06
2023-02-27T01:24:57.077Z,100529.91
2023-02-27T01:27:59.869Z,100529.03
2023-02-27T01:31:02.816Z,100521.78
2023-02-27T01:34:07.890Z,100532.06
2023-02-27T01:37:11.022Z,100536.72
2023-02-27T01:40:14.981Z,100534.03
2023-02-27T01:43:20.133Z,100540.78
2023-02-27T01:46:24.043Z,100545.88
2023-02-27T01:49:34.544Z,100548.03
2023-02-27T01:52:40.894Z,100554.28
2023-02-27T01:55:44.087Z,100556.41
2023-02-27T01:58:48.938Z,100558.59
2023-02-27T02:01:52.333Z,100561.63
2023-02-27T02:04:56.739Z,100570.25
2023-02-27T02:08:02.314Z,100564.09
2023-02-27T02:11:07.710Z,100576.66
2023-02-27T02:14:11.115Z,100568.25
2023-02-27T02:17:30.205Z,100563.09
2023-02-27T02:21:07.444Z,100564.28
2023-02-27T02:24:28.599Z,100572.47
2023-02-27T02:28:04.693Z,100572.13
2023-02-27T02:31:48.120Z,100572.06
2023-02-27T02:35:15.521Z,100572.22
2023-02-27T02:38:21.274Z,100573.44
2023-02-27T02:41:49.721Z,100573.59
2023-02-27T02:45:19.824Z,100576.13
2023-02-27T02:48:31.427Z,100591.66
2023-02-27T02:52:10.510Z,100590.94
2023-02-27T02:55:43.939Z,100583.69
2023-02-27T02:59:18.450Z,100592.31
2023-02-27T03:02:29.300Z,100593.53
2023-02-27T03:05:38.567Z,100602.69
2023-02-27T03:08:56.442Z,100606.38
2023-02-27T03:12:02.868Z,100601.38
2023-02-27T03:15:15.925Z,100599.16
2023-02-27T03:18:28.734Z,100606.66
2023-02-27T03:22:01.432Z,100613.09
2023-02-27T03:25:08.056Z,100605.59
2023-02-27T03:28:19.372Z,100603.88
2023-02-27T03:31:33.399Z,100609.06
2023-02-27T03:34:40.198Z,100604.72
2023-02-27T03:38:16.206Z,100609.47
2023-02-27T03:41:37.783Z,100611.91
2023-02-27T03:45:37.587Z,100623.41
2023-02-27T03:48:44.763Z,100626.88
2023-02-27T03:51:48.124Z,100629.22
2023-02-27T03:54:58.063Z,100637.97
2023-02-27T03:58:01.658Z,100637.53
2023-02-27T04:01:04.823Z,100638.66
2023-02-27T04:04:12.909Z,100652.22
2023-02-27T04:07:41.452Z,100650.47
2023-02-27T04:11:29.960Z,100655.28
2023-02-27T04:15:00.510Z,100661.50
2023-02-27T04:18:18.706Z,100665.41
2023-02-27T04:21:56.986Z,100662.41
2023-02-27T04:25:33.137Z,100667.75
2023-02-27T04:29:03.138Z,100672.88
2023-02-27T04:32:31.028Z,100668.19
2023-02-27T04:35:57.179Z,100673.69
2023-02-27T04:39:06.307Z,100679.25
2023-02-27T04:42:19.092Z,100677.88
2023-02-27T04:45:25.004Z,100669.19
2023-02-27T04:48:40.899Z,100670.56
2023-02-27T04:51:53.999Z,100674.53
2023-02-27T04:55:06.766Z,100673.69
2023-02-27T04:58:16.016Z,100675.81
2023-02-27T05:01:26.622Z,100667.34
2023-02-27T05:04:32.900Z,100664.22
2023-02-27T05:07:59.970Z,100668.72
2023-02-27T05:11:11.764Z,100673.38
2023-02-27T05:14:29.121Z,100682.91
2023-02-27T05:17:37.577Z,100678.50
2023-02-27T05:20:59.064Z,100687.28
2023-02-27T05:24:23.590Z,100693.31
2023-02-27T05:27:39.330Z,100706.91
2023-02-27T05:30:48.740Z,100724.56
2023-02-27T05:34:07.980Z,100733.25
2023-02-27T05:37:32.457Z,100734.91
2023-02-27T05:40:46.808Z,100748.50
2023-02-27T05:43:56.794Z,100765.56
2023-02-27T05:47:04.659Z,100774.91
2023-02-27T05:50:15.831Z,100773.56
2023-02-27T05:53:23.622Z,100781.69
2023-02-27T05:56:29.936Z,100788.84
2023-02-27T05:59:43.705Z,100779.91
2023-02-27T06:02:47.343Z,100786.50
2023-02-27T06:05:53.425Z,100787.38
2023-02-27T06:08:56.682Z,100807.66
2023-02-27T06:12:01.684Z,100816.31
2023-02-27T06:15:05.352Z,100824.94
2023-02-27T06:18:10.212Z,100838.53
2023-02-27T06:21:13.821Z,100833.03
2023-02-27T06:24:16.656Z,100838.72
2023-02-27T06:27:19.829Z,100854.31
2023-02-27T06:30:22.753Z,100856.88
2023-02-27T06:33:26.153Z,100861.56
2023-02-27T06:36:30.227Z,100853.06
2023-02-27T06:39:33.472Z,100862.00
2023-02-27T06:42:36.410Z,100861.09
2023-02-27T06:48:56.486Z,100869.03
2023-02-27T06:52:00.258Z,100872.72
2023-02-27T06:55:04.709Z,100873.94
2023-02-27T06:58:07.968Z,100874.91
2023-02-27T07:01:11.628Z,100875.09
2023-02-27T07:04:17.452Z,100870.63
2023-02-27T07:08:00.906Z,100875.59
2023-02-27T07:11:07.649Z,100877.31
2023-02-27T07:14:15.353Z,100879.31
2023-02-27T07:17:18.696Z,100886.44
2023-02-27T07:20:22.065Z,100886.44
2023-02-27T07:23:25.288Z,100884.78
2023-02-27T07:26:28.656Z,100894.19
2023-02-27T07:29:31.968Z,100896.34
2023-02-27T07:32:34.955Z,100896.31
2023-02-27T07:35:38.101Z,100898.31
2023-02-27T07:38:41.088Z,100895.44
2023-02-27T07:41:44.560Z,100900.16
2023-02-27T07:44:53.000Z,100890.63
2023-02-27T07:47:56.173Z,100885.69
2023-02-27T07:51:00.532Z,100891.97
2023-02-27T07:54:04.030Z,100906.63
2023-02-27T07:57:14.508Z,100898.00
2023-02-27T08:00:19.539Z,100901.59
2023-02-27T08:03:22.737Z,100908.56
2023-02-27T08:06:26.267Z,100908.47
2023-02-27T08:09:31.051Z,100913.59
2023-02-27T08:12:34.354Z,100918.38
2023-02-27T08:15:45.756Z,100920.63
2023-02-27T08:18:48.833Z,100929.63
2023-02-27T08:21:53.816Z,100919.09
2023-02-27T08:25:09.462Z,100929.47
2023-02-27T08:28:21.564Z,100932.13
2023-02-27T08:31:27.663Z,100932.91
2023-02-27T08:34:31.188Z,100932.19
2023-02-27T08:37:34.303Z,100926.81
2023-02-27T08:40:37.571Z,100929.41
2023-02-27T08:43:40.913Z,100930.41
2023-02-27T08:46:44.490Z,100932.91
2023-02-27T08:49:47.658Z,100937.41
2023-02-27T08:52:55.087Z,100936.94
2023-02-27T08:55:58.686Z,100939.94
2023-02-27T08:59:02.626Z,100946.47
2023-02-27T09:02:05.630Z,100945.31
2023-02-27T09:05:09.226Z,100949.03
2023-02-27T09:08:12.562Z,100953.94
2023-02-27T09:11:15.613Z,100952.06
2023-02-27T09:14:26.841Z,100953.31
2023-02-27T09:17:39.990Z,100958.88
2023-02-27T09:20:43.441Z,100963.75
2023-02-27T09:23:47.126Z,100968.16
2023-02-27T09:26:50.951Z,100974.75
2023-02-27T09:29:56.418Z,100967.16
2023-02-27T09:33:02.634Z,100966.09
2023-02-27T09:36:07.158Z,100976.00
2023-02-27T09:39:10.622Z,100977.84
2023-02-27T09:42:19.293Z,100974.25
2023-02-27T09:45:30.624Z,100977.03
2023-02-27T09:48:51.710Z,100972.38
2023-02-27T09:52:13.627Z,100975.53
2023-02-27T09:55:36.358Z,100976.69
2023-02-27T09:59:01.424Z,100971.78
2023-02-27T10:02:35.983Z,100987.59
2023-02-27T10:06:24.836Z,100975.59
2023-02-27T10:09:40.092Z,100976.34
2023-02-27T10:13:08.617Z,100976.50
2023-02-27T10:16:17.388Z,100974.50
2023-02-27T10:19:28.217Z,100980.75
2023-02-27T10:22:41.344Z,100979.31
2023-02-27T10:25:50.178Z,100966.06
2023-02-27T10:28:53.225Z,100976.63
2023-02-27T10:32:05.560Z,100975.66
2023-02-27T10:35:28.157Z,100973.88
2023-02-27T10:38:41.600Z,100979.22
2023-02-27T10:41:58.217Z,100981.44
2023-02-27T10:45:04.681Z,100988.28
2023-02-27T10:48:11.297Z,100981.84
2023-02-27T10:51:29.902Z,100987.03
2023-02-27T10:54:33.280Z,100985.75
2023-02-27T10:57:43.462Z,100987.78
2023-02-27T11:01:01.254Z,100980.91
2023-02-27T11:04:07.407Z,100982.75
2023-02-27T11:07:16.030Z,100975.53
2023-02-27T11:10:26.802Z,100973.75
2023-02-27T11:13:36.542Z,100969.41
2023-02-27T11:16:51.766Z,100965.66
2023-02-27T11:19:55.841Z,100969.00
2023-02-27T11:23:17.259Z,100969.47
2023-02-27T11:26:39.113Z,100965.88
2023-02-27T11:29:57.032Z,100968.31
2023-02-27T11:33:05.421Z,100963.41
2023-02-27T11:36:09.588Z,100967.63
2023-02-27T11:39:30.503Z,100966.66
2023-02-27T11:42:36.240Z,100966.72
2023-02-27T11:46:04.153Z,100968.78
2023-02-27T11:49:15.515Z,100969.75
2023-02-27T11:52:36.520Z,100972.22
2023-02-27T11:55:39.451Z,100972.22
2023-02-27T11:59:16.338Z,100965.34
2023-02-27T12:02:29.094Z,100966.69
2023-02-27T12:05:39.932Z,100974.59
2023-02-27T12:08:50.566Z,100970.94
2023-02-27T12:11:55.139Z,100962.34
2023-02-27T12:15:20.602Z,100969.88
2023-02-27T12:18:31.832Z,100967.72
2023-02-27T12:21:40.698Z,100973.13
2023-02-27T12:25:04.366Z,100981.75
2023-02-27T12:28:25.949Z,100981.66
2023-02-27T12:31:37.508Z,100980.69
2023-02-27T12:34:51.268Z,100965.78
2023-02-27T12:37:56.831Z,100981.84
2023-02-27T12:41:38.980Z,100982.38
2023-02-27T12:45:20.768Z,100986.28
2023-02-27T12:48:23.950Z,100982.88
2023-02-27T12:51:45.755Z,100982.06
2023-02-27T12:55:14.138Z,100985.22
2023-02-27T12:58:23.601Z,100991.34
2023-02-27T13:01:59.561Z,100993.09
2023-02-27T13:05:34.402Z,101004.03
2023-02-27T13:08:47.177Z,101004.41
2023-02-27T13:12:01.003Z,100996.69
2023-02-27T13:15:36.640Z,100995.53
2023-02-27T13:18:57.224Z,100996.25
2023-02-27T13:23:01.796Z,101006.56
2023-02-27T13:26:14.572Z,101006.81
2023-02-27T13:29:23.379Z,101003.66
2023-02-27T13:32:55.581Z,101010.66
2023-02-27T13:36:07.862Z,101003.84
2023-02-27T13:39:47.151Z,100998.94
2023-02-27T13:42:55.514Z,101006.13
2023-02-27T13:46:25.194Z,101006.00
2023-02-27T13:49:30.037Z,101008.59
2023-02-27T13:52:38.953Z,101007.28
2023-02-27T13:55:42.039Z,100999.31
2023-02-27T13:58:49.487Z,100998.88
2023-02-27T14:02:13.852Z,101002.13
2023-02-27T14:05:48.999Z,100999.06
2023-02-27T14:09:12.901Z,101005.47
2023-02-27T14:12:47.694Z,100995.38
2023-02-27T14:16:08.779Z,100986.75
2023-02-27T14:19:15.390Z,100987.91
2023-02-27T14:22:18.565Z,100991.03
2023-02-27T14:25:31.104Z,100992.38
2023-02-27T14:29:02.533Z,100995.19
2023-02-27T14:32:08.176Z,100989.03
2023-02-27T14:35:16.265Z,100994.66
2023-02-27T14:38:22.413Z,101003.38
2023-02-27T14:41:41.381Z,101007.88
2023-02-27T14:44:47.217Z,101012.84
2023-02-27T14:47:53.356Z,101008.25
2023-02-27T14:50:58.222Z,101016.47
2023-02-27T14:54:07.872Z,101025.06
2023-02-27T14:57:24.190Z,101033.03
2023-02-27T15:00:36.304Z,101031.84
2023-02-27T15:03:48.689Z,101031.59
2023-02-27T15:06:54.548Z,101037.13
2023-02-27T15:10:02.605Z,101030.34
2023-02-27T15:13:06.732Z,101037.56
2023-02-27T15:16:24.782Z,101034.88
2023-02-27T15:19:30.279Z,101049.06
2023-02-27T15:22:39.984Z,101058.13
2023-02-27T15:25:43.434Z,101061.03
2023-02-27T15:28:49.529Z,101062.03
2023-02-27T15:31:53.350Z,101063.75
2023-02-27T15:35:02.066Z,101064.66
2023-02-27T15:38:25.923Z,101072.31
2023-02-27T15:41:29.582Z,101076.94
2023-02-27T15:44:45.431Z,101086.31
2023-02-27T15:47:52.005Z,101086.19
2023-02-27T15:50:59.240Z,101093.63
2023-02-27T15:54:04.498Z,101100.47
2023-02-27T15:57:07.808Z,101106.22
2023-02-27T16:00:18.245Z,101108.28
2023-02-27T16:03:24.071Z,101107.28
2023-02-27T16:06:31.811Z,101114.91
2023-02-27T16:09:38.498Z,101105.78
2023-02-27T16:12:43.104Z,101110.88
2023-02-27T16:15:59.337Z,101116.06
2023-02-27T16:19:16.395Z,101118.38
2023-02-27T16:22:22.746Z,101122.56
2023-02-27T16:25:25.545Z,101134.97
2023-02-27T16:28:30.924Z,101134.56
2023-02-27T16:31:37.404Z,101140.22
2023-02-27T16:34:46.567Z,101142.84
2023-02-27T16:37:50.828Z,101151.22
2023-02-27T16:40:53.757Z,101150.56
2023-02-27T16:43:57.418Z,101142.13
2023-02-27T16:47:00.444Z,101148.94
2023-02-27T16:50:03.727Z,101149.28
2023-02-27T16:53:09.312Z,101141.78
2023-02-27T16:56:12.812Z,101151.91
2023-02-27T16:59:36.245Z,101167.78
2023-02-27T17:02:39.721Z,101181.88
2023-02-27T17:05:42.901Z,101184.31
2023-02-27T17:08:46.372Z,101188.31
2023-02-27T17:11:49.958Z,101187.75
2023-02-27T17:14:53.216Z,101182.22
2023-02-27T17:17:56.457Z,101191.44
2023-02-27T17:21:04.025Z,101192.84
2023-02-27T17:24:07.920Z,101191.81
2023-02-27T17:27:11.302Z,101199.53
2023-02-27T17:30:14.913Z,101202.72
2023-02-27T17:33:18.461Z,101200.25
2023-02-27T17:36:24.117Z,101202.28
2023-02-27T17:39:27.887Z,101189.38
2023-02-27T17:42:36.072Z,101188.53
2023-02-27T17:45:39.746Z,101197.91
2023-02-27T17:48:42.847Z,101198.97
2023-02-27T17:51:45.827Z,101201.81
2023-02-27T17:54:49.248Z,101202.16
2023-02-27T17:57:52.427Z,101212.84
2023-02-27T18:00:58.083Z,101229.69
2023-02-27T18:04:01.043Z,101235.31
2023-02-27T18:07:04.003Z,101232.78
2023-02-27T18:10:09.245Z,101234.88
2023-02-27T18:13:14.383Z,101246.66
2023-02-27T18:16:17.611Z,101243.47
2023-02-27T18:19:21.291Z,101249.66
2023-02-27T18:22:25.872Z,101260.94
2023-02-27T18:25:29.505Z,101259.50
2023-02-27T18:28:33.437Z,101259.00
2023-02-27T18:31:45.216Z,101257.56
2023-02-27T18:34:48.140Z,101266.53
2023-02-27T18:37:52.292Z,101272.38
2023-02-27T18:40:55.477Z,101271.50
2023-02-27T18:43:58.799Z,101277.97
2023-02-27T18:47:02.270Z,101274.88
2023-02-27T18:50:06.827Z,101285.81
2023-02-27T18:53:11.293Z,101287.88
2023-02-27T18:56:17.092Z,101287.44
2023-02-27T18:59:19.976Z,101281.41
2023-02-27T19:02:23.388Z,101272.25
2023-02-27T19:05:27.006Z,101279.97
2023-02-27T19:08:31.526Z,101277.50
2023-02-27T19:11:35.541Z,101283.44
2023-02-27T19:14:39.243Z,101287.25
2023-02-27T19:17:43.061Z,101288.81
2023-02-27T19:20:46.345Z,101282.47
2023-02-27T19:23:49.544Z,101290.72
2023-02-27T19:26:53.637Z,101292.28
2023-02-27T19:29:57.000Z,101296.78
2023-02-27T19:33:02.796Z,101302.69
2023-02-27T19:36:11.639Z,101317.56
2023-02-27T19:39:15.169Z,101328.09
2023-02-27T19:42:18.534Z,101319.03
2023-02-27T19:45:21.482Z,101329.78
2023-02-27T19:48:25.016Z,101326.28
2023-02-27T19:51:28.082Z,101330.78
2023-02-27T19:54:30.901Z,101336.47
2023-02-27T19:57:35.491Z,101344.75
2023-02-27T20:00:40.467Z,101349.91
2023-02-27T20:03:44.048Z,101346.88
2023-02-27T20:06:49.636Z,101343.06
2023-02-27T20:09:52.570Z,101352.00
2023-02-27T20:12:58.990Z,101354.00
2023-02-27T20:16:09.153Z,101354.69
2023-02-27T20:19:17.114Z,101353.78
2023-02-27T20:22:20.778Z,101345.63
2023-02-27T20:25:24.106Z,101359.63
2023-02-27T20:28:31.923Z,101370.38
2023-02-27T20:31:37.417Z,101365.88
2023-02-27T20:34:40.475Z,101367.34
2023-02-27T20:37:43.213Z,101371.03
2023-02-27T20:40:46.265Z,101376.50
2023-02-27T20:43:49.750Z,101371.25
2023-02-27T20:46:52.728Z,101381.31
2023-02-27T20:49:55.738Z,101378.19
2023-02-27T20:52:58.667Z,101379.88
2023-02-27T20:56:01.928Z,101379.63
2023-02-27T20:59:07.134Z,101381.22
2023-02-27T21:02:11.212Z,101384.13
2023-02-27T21:05:14.279Z,101393.31
2023-02-27T21:08:18.670Z,101385.69
2023-02-27T21:11:27.277Z,101386.81
2023-02-27T21:14:30.452Z,101392.59
2023-02-27T21:17:33.446Z,101396.63
2023-02-27T21:20:39.083Z,101394.88
2023-02-27T21:27:03.507Z,101397.97
2023-02-27T21:30:06.974Z,101389.16
2023-02-27T21:33:09.793Z,101388.16
2023-02-27T21:36:13.602Z,101387.03
2023-02-27T21:39:23.511Z,101391.38
2023-02-27T21:42:26.429Z,101395.19
2023-02-27T21:45:29.201Z,101394.31
2023-02-27T21:48:32.577Z,101410.63
2023-02-27T21:51:40.743Z,101405.59
2023-02-27T21:54:44.363Z,101399.06
2023-02-27T21:57:47.463Z,101404.44
2023-02-27T22:00:50.813Z,101405.75
2023-02-27T22:03:54.063Z,101413.34
2023-02-27T22:06:57.088Z,101405.00
2023-02-27T22:10:00.036Z,101408.47
2023-02-27T22:13:05.785Z,101409.53
2023-02-27T22:16:11.262Z,101410.09
2023-02-27T22:19:19.973Z,101418.72
2023-02-27T22:22:23.520Z,101422.72
2023-02-27T22:25:26.697Z,101422.97
2023-02-27T22:28:31.771Z,101425.38
2023-02-27T22:31:37.748Z,101429.47
2023-02-27T22:34:40.789Z,101427.09
2023-02-27T22:37:44.236Z,101432.41
2023-02-27T22:40:47.372Z,101436.84
2023-02-27T22:43:51.435Z,101437.16
2023-02-27T22:46:56.029Z,101442.88
2023-02-27T22:49:59.342Z,101447.06
2023-02-27T22:53:02.849Z,101452.09
2023-02-27T22:56:08.088Z,101458.63
2023-02-27T22:59:11.401Z,101464.28
2023-02-27T23:02:14.551Z,101460.44
2023-02-27T23:05:17.598Z,101464.16
2023-02-27T23:08:20.725Z,101463.44
2023-02-27T23:11:24.724Z,101468.47
2023-02-27T23:14:27.944Z,101475.88
2023-02-27T23:17:33.144Z,101464.09
2023-02-27T23:20:40.045Z,101470.13
2023-02-27T23:23:43.614Z,101469.94
2023-02-27T23:26:48.662Z,101482.31
2023-02-27T23:29:51.858Z,101476.47
2023-02-27T23:32:56.045Z,101486.53
2023-02-27T23:35:59.810Z,101480.31
2023-02-27T23:39:03.775Z,101492.50
2023-02-27T23:42:06.897Z,101495.38
2023-02-27T23:45:33.040Z,101500.66
2023-02-27T23:48:36.613Z,101498.22
2023-02-27T23:51:40.114Z,101504.19
2023-02-27T23:54:43.321Z,101506.81
2023-02-27T23:57:46.703Z,101500.47
